sensor_id;sensor_type;location;lat;lon;timestamp;P1;P2;P0
80555;PMS5003;69889;55.040;73.076;2023-07-28T00:00:38;16.00;14.75;9.25
80555;PMS5003;69889;55.040;73.076;2023-07-28T00:03:04;12.25;12.00;8.75
80555;PMS5003;69889;55.040;73.076;2023-07-28T00:05:31;22.00;20.00;13.00
80555;PMS5003;69889;55.040;73.076;2023-07-28T00:07:58;20.75;19.00;13.00
80555;PMS5003;69889;55.040;73.076;2023-07-28T00:10:30;18.50;17.00;11.00
80555;PMS5003;69889;55.040;73.076;2023-07-28T00:12:57;16.00;15.00;10.00
80555;PMS5003;69889;55.040;73.076;2023-07-28T00:15:24;19.25;17.50;12.00
80555;PMS5003;69889;55.040;73.076;2023-07-28T00:17:50;22.00;19.75;13.00
80555;PMS5003;69889;55.040;73.076;2023-07-28T00:20:17;20.50;18.00;12.00
80555;PMS5003;69889;55.040;73.076;2023-07-28T00:22:44;22.00;20.00;13.75
80555;PMS5003;69889;55.040;73.076;2023-07-28T00:25:11;22.00;19.75;13.25
80555;PMS5003;69889;55.040;73.076;2023-07-28T00:27:37;22.75;20.75;14.00
80555;PMS5003;69889;55.040;73.076;2023-07-28T00:30:05;24.00;22.00;15.00
80555;PMS5003;69889;55.040;73.076;2023-07-28T00:32:32;25.25;23.00;15.00
80555;PMS5003;69889;55.040;73.076;2023-07-28T00:35:00;25.00;22.00;15.00
80555;PMS5003;69889;55.040;73.076;2023-07-28T00:37:27;25.00;23.00;15.00
80555;PMS5003;69889;55.040;73.076;2023-07-28T00:39:53;22.25;19.75;13.00
80555;PMS5003;69889;55.040;73.076;2023-07-28T00:42:21;23.75;21.75;14.50
80555;PMS5003;69889;55.040;73.076;2023-07-28T00:44:47;23.00;21.00;13.00
80555;PMS5003;69889;55.040;73.076;2023-07-28T00:47:14;24.00;22.00;14.00
80555;PMS5003;69889;55.040;73.076;2023-07-28T00:49:41;25.50;23.00;15.00
80555;PMS5003;69889;55.040;73.076;2023-07-28T00:52:08;40.50;34.00;22.50
80555;PMS5003;69889;55.040;73.076;2023-07-28T00:54:35;33.25;28.00;18.75
80555;PMS5003;69889;55.040;73.076;2023-07-28T00:57:02;32.00;27.00;17.00
80555;PMS5003;69889;55.040;73.076;2023-07-28T00:59:29;27.00;24.00;16.00
80555;PMS5003;69889;55.040;73.076;2023-07-28T01:01:55;27.25;23.50;15.50
80555;PMS5003;69889;55.040;73.076;2023-07-28T01:04:22;27.00;24.00;16.00
80555;PMS5003;69889;55.040;73.076;2023-07-28T01:07:04;29.50;25.75;17.00
80555;PMS5003;69889;55.040;73.076;2023-07-28T01:09:43;33.25;28.50;19.00
80555;PMS5003;69889;55.040;73.076;2023-07-28T01:12:12;32.50;28.50;18.75
80555;PMS5003;69889;55.040;73.076;2023-07-28T01:14:39;35.00;29.75;20.00
80555;PMS5003;69889;55.040;73.076;2023-07-28T01:17:06;30.50;25.25;17.75
80555;PMS5003;69889;55.040;73.076;2023-07-28T01:19:33;28.50;25.25;16.75
80555;PMS5003;69889;55.040;73.076;2023-07-28T01:27:16;27.00;24.00;16.75
80555;PMS5003;69889;55.040;73.076;2023-07-28T01:29:43;27.75;24.00;16.00
80555;PMS5003;69889;55.040;73.076;2023-07-28T01:32:11;28.00;24.75;16.00
80555;PMS5003;69889;55.040;73.076;2023-07-28T01:34:37;26.75;24.00;15.00
80555;PMS5003;69889;55.040;73.076;2023-07-28T01:37:04;28.50;24.75;16.00
80555;PMS5003;69889;55.040;73.076;2023-07-28T01:39:30;25.25;22.25;16.00
80555;PMS5003;69889;55.040;73.076;2023-07-28T01:41:57;24.75;23.00;16.00
80555;PMS5003;69889;55.040;73.076;2023-07-28T01:44:24;28.00;25.00;16.00
80555;PMS5003;69889;55.040;73.076;2023-07-28T01:46:50;30.00;26.00;17.00
80555;PMS5003;69889;55.040;73.076;2023-07-28T01:49:17;31.00;26.00;17.00
80555;PMS5003;69889;55.040;73.076;2023-07-28T01:51:43;26.00;23.00;15.00
80555;PMS5003;69889;55.040;73.076;2023-07-28T01:54:10;27.25;24.50;17.00
80555;PMS5003;69889;55.040;73.076;2023-07-28T01:56:37;29.00;25.50;17.00
80555;PMS5003;69889;55.040;73.076;2023-07-28T01:59:04;29.00;26.00;16.00
80555;PMS5003;69889;55.040;73.076;2023-07-28T02:01:30;28.00;24.00;16.50
80555;PMS5003;69889;55.040;73.076;2023-07-28T02:03:57;26.25;24.00;16.00
80555;PMS5003;69889;55.040;73.076;2023-07-28T02:06:26;26.00;23.00;15.00
80555;PMS5003;69889;55.040;73.076;2023-07-28T02:08:54;27.00;24.50;16.75
80555;PMS5003;69889;55.040;73.076;2023-07-28T02:11:20;27.50;24.00;16.00
80555;PMS5003;69889;55.040;73.076;2023-07-28T02:13:47;26.00;23.00;16.00
80555;PMS5003;69889;55.040;73.076;2023-07-28T02:16:17;23.75;22.00;15.00
80555;PMS5003;69889;55.040;73.076;2023-07-28T02:18:43;25.00;22.75;15.00
80555;PMS5003;69889;55.040;73.076;2023-07-28T02:21:10;23.50;21.50;15.00
80555;PMS5003;69889;55.040;73.076;2023-07-28T02:23:38;24.00;23.00;15.00
80555;PMS5003;69889;55.040;73.076;2023-07-28T02:26:06;25.00;23.00;15.00
80555;PMS5003;69889;55.040;73.076;2023-07-28T02:28:32;25.75;23.00;15.00
80555;PMS5003;69889;55.040;73.076;2023-07-28T02:30:59;23.00;21.00;14.50
80555;PMS5003;69889;55.040;73.076;2023-07-28T02:33:29;23.00;21.25;14.00
80555;PMS5003;69889;55.040;73.076;2023-07-28T02:35:57;24.50;21.25;15.00
80555;PMS5003;69889;55.040;73.076;2023-07-28T02:38:25;22.75;20.00;14.00
80555;PMS5003;69889;55.040;73.076;2023-07-28T02:40:53;23.00;21.00;13.00
80555;PMS5003;69889;55.040;73.076;2023-07-28T02:43:19;20.00;19.00;13.25
80555;PMS5003;69889;55.040;73.076;2023-07-28T02:45:56;22.00;20.00;13.50
80555;PMS5003;69889;55.040;73.076;2023-07-28T02:48:23;22.00;19.00;13.00
80555;PMS5003;69889;55.040;73.076;2023-07-28T02:50:52;22.25;20.25;14.00
80555;PMS5003;69889;55.040;73.076;2023-07-28T02:53:19;20.50;19.00;13.00
80555;PMS5003;69889;55.040;73.076;2023-07-28T02:55:46;21.75;20.50;13.75
80555;PMS5003;69889;55.040;73.076;2023-07-28T02:58:13;21.75;19.50;13.00
80555;PMS5003;69889;55.040;73.076;2023-07-28T03:00:41;19.25;17.50;13.00
80555;PMS5003;69889;55.040;73.076;2023-07-28T03:03:08;22.00;20.00;13.25
80555;PMS5003;69889;55.040;73.076;2023-07-28T03:05:39;19.75;18.00;12.00
80555;PMS5003;69889;55.040;73.076;2023-07-28T03:08:21;21.25;19.75;13.00
80555;PMS5003;69889;55.040;73.076;2023-07-28T03:10:47;21.75;19.75;14.00
80555;PMS5003;69889;55.040;73.076;2023-07-28T03:13:14;21.25;20.00;13.00
80555;PMS5003;69889;55.040;73.076;2023-07-28T03:15:47;22.00;20.00;13.00
80555;PMS5003;69889;55.040;73.076;2023-07-28T03:18:14;17.75;16.50;11.00
80555;PMS5003;69889;55.040;73.076;2023-07-28T03:20:41;19.00;17.75;13.00
80555;PMS5003;69889;55.040;73.076;2023-07-28T03:23:08;22.00;20.25;14.00
80555;PMS5003;69889;55.040;73.076;2023-07-28T03:25:35;17.00;16.00;11.50
80555;PMS5003;69889;55.040;73.076;2023-07-28T03:28:03;18.00;16.00;11.00
80555;PMS5003;69889;55.040;73.076;2023-07-28T03:30:29;17.75;15.00;10.00
80555;PMS5003;69889;55.040;73.076;2023-07-28T03:32:56;15.00;14.25;11.00
80555;PMS5003;69889;55.040;73.076;2023-07-28T03:35:23;15.00;14.00;11.00
80555;PMS5003;69889;55.040;73.076;2023-07-28T03:38:00;15.00;14.00;10.00
80555;PMS5003;69889;55.040;73.076;2023-07-28T03:40:26;17.00;16.00;11.00
80555;PMS5003;69889;55.040;73.076;2023-07-28T03:42:54;15.50;14.00;10.00
80555;PMS5003;69889;55.040;73.076;2023-07-28T03:45:21;17.00;16.00;11.00
80555;PMS5003;69889;55.040;73.076;2023-07-28T03:47:48;16.00;15.00;11.00
80555;PMS5003;69889;55.040;73.076;2023-07-28T03:50:14;16.00;15.00;11.00
80555;PMS5003;69889;55.040;73.076;2023-07-28T03:52:41;16.75;15.50;11.00
80555;PMS5003;69889;55.040;73.076;2023-07-28T03:55:07;18.00;16.00;10.50
80555;PMS5003;69889;55.040;73.076;2023-07-28T03:57:34;17.00;15.75;10.75
80555;PMS5003;69889;55.040;73.076;2023-07-28T04:00:01;15.50;15.00;10.25
80555;PMS5003;69889;55.040;73.076;2023-07-28T04:02:28;16.00;15.00;11.00
80555;PMS5003;69889;55.040;73.076;2023-07-28T04:04:56;13.00;13.00;9.50
80555;PMS5003;69889;55.040;73.076;2023-07-28T04:07:22;14.50;13.75;10.00
80555;PMS5003;69889;55.040;73.076;2023-07-28T04:09:49;16.00;15.00;11.00
80555;PMS5003;69889;55.040;73.076;2023-07-28T04:12:17;16.50;15.50;11.25
80555;PMS5003;69889;55.040;73.076;2023-07-28T04:14:44;18.00;17.00;11.25
80555;PMS5003;69889;55.040;73.076;2023-07-28T04:17:10;15.75;14.75;11.00
80555;PMS5003;69889;55.040;73.076;2023-07-28T04:19:38;15.75;15.00;11.00
80555;PMS5003;69889;55.040;73.076;2023-07-28T04:22:04;15.00;14.25;11.00
80555;PMS5003;69889;55.040;73.076;2023-07-28T04:24:32;14.00;12.50;8.75
80555;PMS5003;69889;55.040;73.076;2023-07-28T04:26:59;14.00;13.25;10.00
80555;PMS5003;69889;55.040;73.076;2023-07-28T04:29:25;13.25;12.50;9.00
80555;PMS5003;69889;55.040;73.076;2023-07-28T04:31:53;14.00;13.00;8.00
80555;PMS5003;69889;55.040;73.076;2023-07-28T04:34:29;16.00;14.00;9.00
80555;PMS5003;69889;55.040;73.076;2023-07-28T04:37:15;11.75;11.00;8.00
80555;PMS5003;69889;55.040;73.076;2023-07-28T04:39:50;12.00;12.00;10.00
80555;PMS5003;69889;55.040;73.076;2023-07-28T04:42:17;14.00;13.00;9.00
80555;PMS5003;69889;55.040;73.076;2023-07-28T04:44:46;16.00;14.25;10.00
80555;PMS5003;69889;55.040;73.076;2023-07-28T04:47:13;13.25;13.00;10.00
80555;PMS5003;69889;55.040;73.076;2023-07-28T04:49:40;14.00;13.00;9.00
80555;PMS5003;69889;55.040;73.076;2023-07-28T04:52:07;12.00;11.25;8.00
80555;PMS5003;69889;55.040;73.076;2023-07-28T04:54:34;13.50;13.00;10.00
80555;PMS5003;69889;55.040;73.076;2023-07-28T04:57:00;14.00;13.00;9.00
80555;PMS5003;69889;55.040;73.076;2023-07-28T04:59:32;15.75;15.00;10.00
80555;PMS5003;69889;55.040;73.076;2023-07-28T05:01:59;13.00;12.00;9.00
80555;PMS5003;69889;55.040;73.076;2023-07-28T05:04:26;14.00;13.00;9.00
80555;PMS5003;69889;55.040;73.076;2023-07-28T05:06:52;14.00;13.00;9.00
80555;PMS5003;69889;55.040;73.076;2023-07-28T05:09:19;14.00;13.00;9.00
80555;PMS5003;69889;55.040;73.076;2023-07-28T05:11:45;12.00;11.00;8.00
80555;PMS5003;69889;55.040;73.076;2023-07-28T05:14:12;12.50;12.50;9.00
80555;PMS5003;69889;55.040;73.076;2023-07-28T05:16:39;14.75;14.00;9.00
80555;PMS5003;69889;55.040;73.076;2023-07-28T05:19:11;14.00;13.00;9.00
80555;PMS5003;69889;55.040;73.076;2023-07-28T05:21:47;15.00;14.00;9.00
80555;PMS5003;69889;55.040;73.076;2023-07-28T05:24:15;13.25;12.25;9.00
80555;PMS5003;69889;55.040;73.076;2023-07-28T05:26:43;14.00;13.00;9.00
80555;PMS5003;69889;55.040;73.076;2023-07-28T05:29:11;13.00;12.75;9.00
80555;PMS5003;69889;55.040;73.076;2023-07-28T05:31:37;15.00;14.00;9.50
80555;PMS5003;69889;55.040;73.076;2023-07-28T05:34:11;13.00;12.25;9.00
80555;PMS5003;69889;55.040;73.076;2023-07-28T05:36:40;13.00;13.00;9.00
80555;PMS5003;69889;55.040;73.076;2023-07-28T05:39:07;15.00;13.00;9.00
80555;PMS5003;69889;55.040;73.076;2023-07-28T05:41:40;13.00;12.00;9.00
80555;PMS5003;69889;55.040;73.076;2023-07-28T05:44:11;13.50;13.25;9.00
80555;PMS5003;69889;55.040;73.076;2023-07-28T05:46:37;11.75;11.25;8.50
80555;PMS5003;69889;55.040;73.076;2023-07-28T05:49:04;15.00;14.00;9.00
80555;PMS5003;69889;55.040;73.076;2023-07-28T05:51:31;13.25;12.25;8.75
80555;PMS5003;69889;55.040;73.076;2023-07-28T05:53:58;16.00;15.00;10.00
80555;PMS5003;69889;55.040;73.076;2023-07-28T05:56:24;14.25;13.00;9.00
80555;PMS5003;69889;55.040;73.076;2023-07-28T05:58:51;13.50;12.75;9.00
80555;PMS5003;69889;55.040;73.076;2023-07-28T06:01:17;14.00;13.00;8.00
80555;PMS5003;69889;55.040;73.076;2023-07-28T06:04:03;12.00;11.00;8.00
80555;PMS5003;69889;55.040;73.076;2023-07-28T06:06:32;13.00;12.00;9.00
80555;PMS5003;69889;55.040;73.076;2023-07-28T06:08:59;13.75;12.75;8.25
80555;PMS5003;69889;55.040;73.076;2023-07-28T06:11:25;12.00;11.50;7.25
80555;PMS5003;69889;55.040;73.076;2023-07-28T06:13:52;14.00;13.00;9.00
80555;PMS5003;69889;55.040;73.076;2023-07-28T06:16:19;13.00;12.00;8.00
80555;PMS5003;69889;55.040;73.076;2023-07-28T06:18:46;13.00;12.00;9.00
80555;PMS5003;69889;55.040;73.076;2023-07-28T06:21:16;14.00;12.00;9.00
80555;PMS5003;69889;55.040;73.076;2023-07-28T06:23:43;17.25;15.25;11.00
80555;PMS5003;69889;55.040;73.076;2023-07-28T06:26:10;13.00;12.00;8.00
80555;PMS5003;69889;55.040;73.076;2023-07-28T06:28:36;12.00;12.00;9.00
80555;PMS5003;69889;55.040;73.076;2023-07-28T06:31:04;14.00;13.00;8.00
80555;PMS5003;69889;55.040;73.076;2023-07-28T06:33:31;11.00;11.00;8.00
80555;PMS5003;69889;55.040;73.076;2023-07-28T06:35:58;15.00;14.00;10.00
80555;PMS5003;69889;55.040;73.076;2023-07-28T06:38:24;14.00;13.00;9.00
80555;PMS5003;69889;55.040;73.076;2023-07-28T06:40:52;13.00;12.00;9.00
80555;PMS5003;69889;55.040;73.076;2023-07-28T06:43:18;13.00;12.00;8.00
80555;PMS5003;69889;55.040;73.076;2023-07-28T06:45:50;13.00;12.00;9.00
80555;PMS5003;69889;55.040;73.076;2023-07-28T06:48:17;12.75;11.50;8.50
80555;PMS5003;69889;55.040;73.076;2023-07-28T06:50:43;15.00;14.00;10.00
80555;PMS5003;69889;55.040;73.076;2023-07-28T06:53:10;12.00;11.00;8.00
80555;PMS5003;69889;55.040;73.076;2023-07-28T06:55:37;15.00;14.00;9.00
80555;PMS5003;69889;55.040;73.076;2023-07-28T06:58:05;15.00;14.00;10.50
80555;PMS5003;69889;55.040;73.076;2023-07-28T07:00:33;14.00;12.25;9.00
80555;PMS5003;69889;55.040;73.076;2023-07-28T07:03:01;12.00;11.25;8.00
80555;PMS5003;69889;55.040;73.076;2023-07-28T07:05:28;15.00;14.00;10.00
80555;PMS5003;69889;55.040;73.076;2023-07-28T07:07:54;13.00;12.00;8.00
80555;PMS5003;69889;55.040;73.076;2023-07-28T07:10:30;12.00;11.00;7.25
80555;PMS5003;69889;55.040;73.076;2023-07-28T07:12:56;12.00;11.75;8.00
80555;PMS5003;69889;55.040;73.076;2023-07-28T07:15:23;9.50;9.50;7.00
80555;PMS5003;69889;55.040;73.076;2023-07-28T07:17:49;12.00;11.00;9.00
80555;PMS5003;69889;55.040;73.076;2023-07-28T07:20:22;13.00;12.00;8.00
80555;PMS5003;69889;55.040;73.076;2023-07-28T07:22:49;13.00;12.00;8.00
80555;PMS5003;69889;55.040;73.076;2023-07-28T07:25:15;12.50;11.25;8.00
80555;PMS5003;69889;55.040;73.076;2023-07-28T07:27:42;12.75;12.00;8.75
80555;PMS5003;69889;55.040;73.076;2023-07-28T07:30:09;13.00;12.00;8.75
80555;PMS5003;69889;55.040;73.076;2023-07-28T07:32:35;18.00;16.75;13.00
80555;PMS5003;69889;55.040;73.076;2023-07-28T07:35:02;20.00;19.00;14.00
80555;PMS5003;69889;55.040;73.076;2023-07-28T07:37:29;23.00;22.00;17.00
80555;PMS5003;69889;55.040;73.076;2023-07-28T07:39:58;14.50;14.00;10.00
80555;PMS5003;69889;55.040;73.076;2023-07-28T07:42:27;10.50;10.00;7.00
80555;PMS5003;69889;55.040;73.076;2023-07-28T07:44:55;12.25;11.50;8.00
80555;PMS5003;69889;55.040;73.076;2023-07-28T07:47:21;12.00;11.00;8.00
80555;PMS5003;69889;55.040;73.076;2023-07-28T07:49:48;11.50;11.00;8.00
80555;PMS5003;69889;55.040;73.076;2023-07-28T07:52:15;12.00;11.00;9.00
80555;PMS5003;69889;55.040;73.076;2023-07-28T07:54:41;11.50;10.50;7.00
80555;PMS5003;69889;55.040;73.076;2023-07-28T07:57:08;11.00;10.00;8.00
80555;PMS5003;69889;55.040;73.076;2023-07-28T07:59:34;12.00;12.00;8.00
80555;PMS5003;69889;55.040;73.076;2023-07-28T08:02:01;11.75;11.00;7.00
80555;PMS5003;69889;55.040;73.076;2023-07-28T08:04:29;11.00;11.00;8.00
80555;PMS5003;69889;55.040;73.076;2023-07-28T08:06:55;11.50;11.00;7.00
80555;PMS5003;69889;55.040;73.076;2023-07-28T08:09:22;10.75;10.00;8.00
80555;PMS5003;69889;55.040;73.076;2023-07-28T08:11:48;12.00;12.00;8.00
80555;PMS5003;69889;55.040;73.076;2023-07-28T08:14:15;11.00;10.00;8.00
80555;PMS5003;69889;55.040;73.076;2023-07-28T08:16:41;11.00;11.00;7.00
80555;PMS5003;69889;55.040;73.076;2023-07-28T08:19:08;10.00;10.00;7.25
80555;PMS5003;69889;55.040;73.076;2023-07-28T08:21:35;11.00;10.00;7.00
80555;PMS5003;69889;55.040;73.076;2023-07-28T08:24:03;10.00;10.00;7.00
80555;PMS5003;69889;55.040;73.076;2023-07-28T08:26:30;11.75;11.00;8.00
80555;PMS5003;69889;55.040;73.076;2023-07-28T08:28:56;10.75;10.25;8.00
80555;PMS5003;69889;55.040;73.076;2023-07-28T08:31:23;12.00;11.00;8.00
80555;PMS5003;69889;55.040;73.076;2023-07-28T08:33:49;11.00;10.50;7.00
80555;PMS5003;69889;55.040;73.076;2023-07-28T08:36:16;11.00;10.00;7.00
80555;PMS5003;69889;55.040;73.076;2023-07-28T08:38:43;11.00;11.00;8.00
80555;PMS5003;69889;55.040;73.076;2023-07-28T08:41:12;11.00;10.00;7.00
80555;PMS5003;69889;55.040;73.076;2023-07-28T08:43:38;10.00;10.00;7.00
80555;PMS5003;69889;55.040;73.076;2023-07-28T08:46:05;9.00;9.00;7.00
80555;PMS5003;69889;55.040;73.076;2023-07-28T08:48:31;12.00;11.00;7.00
80555;PMS5003;69889;55.040;73.076;2023-07-28T08:50:58;10.75;10.00;7.00
80555;PMS5003;69889;55.040;73.076;2023-07-28T08:53:24;10.75;10.50;7.00
80555;PMS5003;69889;55.040;73.076;2023-07-28T08:55:51;11.00;11.00;7.00
80555;PMS5003;69889;55.040;73.076;2023-07-28T08:58:18;10.00;10.00;7.00
80555;PMS5003;69889;55.040;73.076;2023-07-28T09:00:46;10.00;10.00;7.00
80555;PMS5003;69889;55.040;73.076;2023-07-28T09:03:15;9.00;9.00;6.00
80555;PMS5003;69889;55.040;73.076;2023-07-28T09:05:43;9.50;9.00;7.00
80555;PMS5003;69889;55.040;73.076;2023-07-28T09:08:20;10.00;9.00;6.00
80555;PMS5003;69889;55.040;73.076;2023-07-28T09:10:47;9.00;8.00;5.00
80555;PMS5003;69889;55.040;73.076;2023-07-28T09:13:18;9.00;9.00;7.00
80555;PMS5003;69889;55.040;73.076;2023-07-28T09:15:44;7.75;7.25;5.00
80555;PMS5003;69889;55.040;73.076;2023-07-28T09:18:12;8.50;8.25;6.00
80555;PMS5003;69889;55.040;73.076;2023-07-28T09:20:40;9.00;8.00;6.00
80555;PMS5003;69889;55.040;73.076;2023-07-28T09:23:08;8.00;7.00;5.00
80555;PMS5003;69889;55.040;73.076;2023-07-28T09:25:36;10.00;10.00;7.00
80555;PMS5003;69889;55.040;73.076;2023-07-28T09:28:04;10.00;10.00;7.00
80555;PMS5003;69889;55.040;73.076;2023-07-28T09:30:48;11.00;10.00;7.00
80555;PMS5003;69889;55.040;73.076;2023-07-28T09:33:29;11.00;10.00;7.25
80555;PMS5003;69889;55.040;73.076;2023-07-28T09:35:56;11.00;10.00;7.00
80555;PMS5003;69889;55.040;73.076;2023-07-28T09:38:24;11.00;11.00;8.00
80555;PMS5003;69889;55.040;73.076;2023-07-28T09:40:54;11.00;11.00;8.00
80555;PMS5003;69889;55.040;73.076;2023-07-28T09:43:23;14.00;12.00;9.00
80555;PMS5003;69889;55.040;73.076;2023-07-28T09:45:50;12.00;11.00;9.00
80555;PMS5003;69889;55.040;73.076;2023-07-28T09:48:17;11.00;10.00;7.00
80555;PMS5003;69889;55.040;73.076;2023-07-28T09:50:45;10.00;10.00;8.00
80555;PMS5003;69889;55.040;73.076;2023-07-28T09:53:15;11.00;10.00;8.00
80555;PMS5003;69889;55.040;73.076;2023-07-28T09:55:43;10.50;10.00;8.00
80555;PMS5003;69889;55.040;73.076;2023-07-28T09:58:10;11.75;11.00;9.00
80555;PMS5003;69889;55.040;73.076;2023-07-28T10:00:38;12.00;11.75;8.00
80555;PMS5003;69889;55.040;73.076;2023-07-28T10:03:06;13.00;12.75;9.00
80555;PMS5003;69889;55.040;73.076;2023-07-28T10:05:33;13.00;12.00;8.00
80555;PMS5003;69889;55.040;73.076;2023-07-28T10:08:00;11.00;10.25;8.25
80555;PMS5003;69889;55.040;73.076;2023-07-28T10:10:28;11.00;11.00;8.00
80555;PMS5003;69889;55.040;73.076;2023-07-28T10:12:54;13.00;12.00;9.00
80555;PMS5003;69889;55.040;73.076;2023-07-28T10:15:27;14.00;13.00;9.00
80555;PMS5003;69889;55.040;73.076;2023-07-28T10:17:54;13.00;12.00;8.00
80555;PMS5003;69889;55.040;73.076;2023-07-28T10:20:27;12.50;12.00;9.00
80555;PMS5003;69889;55.040;73.076;2023-07-28T10:23:01;10.00;10.00;8.00
80555;PMS5003;69889;55.040;73.076;2023-07-28T10:25:28;12.00;11.00;9.00
80555;PMS5003;69889;55.040;73.076;2023-07-28T10:27:58;11.00;11.00;8.00
80555;PMS5003;69889;55.040;73.076;2023-07-28T10:30:25;12.00;11.25;8.50
80555;PMS5003;69889;55.040;73.076;2023-07-28T10:32:51;12.00;11.00;9.00
80555;PMS5003;69889;55.040;73.076;2023-07-28T10:35:23;11.00;10.00;8.00
80555;PMS5003;69889;55.040;73.076;2023-07-28T10:37:50;12.00;11.00;7.25
80555;PMS5003;69889;55.040;73.076;2023-07-28T10:43:00;9.75;9.50;6.75
80555;PMS5003;69889;55.040;73.076;2023-07-28T10:45:29;11.75;11.00;8.00
80555;PMS5003;69889;55.040;73.076;2023-07-28T10:47:56;9.75;9.00;7.00
80555;PMS5003;69889;55.040;73.076;2023-07-28T10:50:27;11.50;11.25;8.00
80555;PMS5003;69889;55.040;73.076;2023-07-28T10:52:54;12.00;12.00;9.00
80555;PMS5003;69889;55.040;73.076;2023-07-28T10:55:23;13.50;12.00;9.00
80555;PMS5003;69889;55.040;73.076;2023-07-28T10:57:50;14.50;12.50;10.00
80555;PMS5003;69889;55.040;73.076;2023-07-28T11:00:18;14.00;13.00;9.00
80555;PMS5003;69889;55.040;73.076;2023-07-28T11:02:45;13.00;12.00;9.00
80555;PMS5003;69889;55.040;73.076;2023-07-28T11:05:23;11.50;11.00;8.00
80555;PMS5003;69889;55.040;73.076;2023-07-28T11:07:54;13.50;12.75;9.25
80555;PMS5003;69889;55.040;73.076;2023-07-28T11:10:21;15.00;13.00;9.00
80555;PMS5003;69889;55.040;73.076;2023-07-28T11:12:48;13.00;12.00;9.00
80555;PMS5003;69889;55.040;73.076;2023-07-28T11:15:15;12.75;12.00;8.50
80555;PMS5003;69889;55.040;73.076;2023-07-28T11:17:44;13.00;12.00;9.00
80555;PMS5003;69889;55.040;73.076;2023-07-28T11:20:15;13.00;12.75;9.00
80555;PMS5003;69889;55.040;73.076;2023-07-28T11:22:46;14.00;12.25;9.00
80555;PMS5003;69889;55.040;73.076;2023-07-28T11:25:13;12.75;12.00;9.00
80555;PMS5003;69889;55.040;73.076;2023-07-28T11:27:41;12.75;12.50;9.00
80555;PMS5003;69889;55.040;73.076;2023-07-28T11:30:07;12.75;12.00;9.00
80555;PMS5003;69889;55.040;73.076;2023-07-28T11:32:38;14.25;13.00;9.00
80555;PMS5003;69889;55.040;73.076;2023-07-28T11:35:05;11.25;11.00;8.00
80555;PMS5003;69889;55.040;73.076;2023-07-28T11:37:35;14.00;13.00;9.00
80555;PMS5003;69889;55.040;73.076;2023-07-28T11:40:02;14.25;13.00;9.00
80555;PMS5003;69889;55.040;73.076;2023-07-28T11:42:33;13.00;11.75;8.25
80555;PMS5003;69889;55.040;73.076;2023-07-28T11:45:17;13.00;12.00;9.25
80555;PMS5003;69889;55.040;73.076;2023-07-28T11:47:58;14.00;13.00;10.00
80555;PMS5003;69889;55.040;73.076;2023-07-28T11:50:26;12.00;11.25;8.50
80555;PMS5003;69889;55.040;73.076;2023-07-28T11:52:52;14.00;13.00;9.25
80555;PMS5003;69889;55.040;73.076;2023-07-28T11:55:19;13.50;13.00;9.00
80555;PMS5003;69889;55.040;73.076;2023-07-28T11:57:48;16.00;14.00;10.00
80555;PMS5003;69889;55.040;73.076;2023-07-28T12:00:15;15.00;14.00;9.00
80555;PMS5003;69889;55.040;73.076;2023-07-28T12:02:43;15.00;14.00;9.00
80555;PMS5003;69889;55.040;73.076;2023-07-28T12:05:14;13.00;12.00;8.25
80555;PMS5003;69889;55.040;73.076;2023-07-28T12:07:41;18.00;17.00;11.00
80555;PMS5003;69889;55.040;73.076;2023-07-28T12:10:13;14.00;13.50;9.25
80555;PMS5003;69889;55.040;73.076;2023-07-28T12:12:41;15.00;14.00;9.00
80555;PMS5003;69889;55.040;73.076;2023-07-28T12:15:23;15.00;14.00;10.00
80555;PMS5003;69889;55.040;73.076;2023-07-28T12:18:11;15.00;14.00;9.25
80555;PMS5003;69889;55.040;73.076;2023-07-28T12:20:42;20.00;17.25;11.50
80555;PMS5003;69889;55.040;73.076;2023-07-28T12:23:16;20.75;19.00;13.00
80555;PMS5003;69889;55.040;73.076;2023-07-28T12:25:44;16.00;15.50;11.00
80555;PMS5003;69889;55.040;73.076;2023-07-28T12:28:11;14.75;14.00;10.00
80555;PMS5003;69889;55.040;73.076;2023-07-28T12:30:38;14.50;13.50;9.25
80555;PMS5003;69889;55.040;73.076;2023-07-28T12:33:05;15.00;14.00;10.00
80555;PMS5003;69889;55.040;73.076;2023-07-28T12:35:32;14.00;13.00;9.00
80555;PMS5003;69889;55.040;73.076;2023-07-28T12:38:01;16.00;15.00;11.00
80555;PMS5003;69889;55.040;73.076;2023-07-28T12:40:31;13.50;12.50;9.00
80555;PMS5003;69889;55.040;73.076;2023-07-28T12:42:59;13.50;12.00;9.00
80555;PMS5003;69889;55.040;73.076;2023-07-28T12:45:26;14.50;13.50;9.00
80555;PMS5003;69889;55.040;73.076;2023-07-28T12:47:53;12.00;11.25;8.50
80555;PMS5003;69889;55.040;73.076;2023-07-28T12:50:20;14.00;13.00;9.00
80555;PMS5003;69889;55.040;73.076;2023-07-28T12:52:50;14.00;12.00;8.00
80555;PMS5003;69889;55.040;73.076;2023-07-28T12:55:17;14.00;13.00;9.00
80555;PMS5003;69889;55.040;73.076;2023-07-28T12:57:43;12.75;12.00;9.00
80555;PMS5003;69889;55.040;73.076;2023-07-28T13:00:10;14.00;13.00;9.00
80555;PMS5003;69889;55.040;73.076;2023-07-28T13:02:45;13.75;12.50;9.00
80555;PMS5003;69889;55.040;73.076;2023-07-28T13:05:12;14.00;13.00;8.75
80555;PMS5003;69889;55.040;73.076;2023-07-28T13:07:40;13.00;12.00;9.00
80555;PMS5003;69889;55.040;73.076;2023-07-28T13:10:07;13.00;12.00;9.00
80555;PMS5003;69889;55.040;73.076;2023-07-28T13:12:37;13.00;13.00;9.00
80555;PMS5003;69889;55.040;73.076;2023-07-28T13:15:06;14.00;13.00;10.00
80555;PMS5003;69889;55.040;73.076;2023-07-28T13:17:34;14.00;13.00;9.00
80555;PMS5003;69889;55.040;73.076;2023-07-28T13:20:01;13.00;12.25;9.00
80555;PMS5003;69889;55.040;73.076;2023-07-28T13:22:28;17.00;14.00;10.00
80555;PMS5003;69889;55.040;73.076;2023-07-28T13:24:55;21.00;17.00;10.50
80555;PMS5003;69889;55.040;73.076;2023-07-28T13:27:24;15.00;14.00;9.50
80555;PMS5003;69889;55.040;73.076;2023-07-28T13:29:51;15.00;14.00;10.00
80555;PMS5003;69889;55.040;73.076;2023-07-28T13:32:18;13.00;12.50;9.00
80555;PMS5003;69889;55.040;73.076;2023-07-28T13:34:45;15.00;14.00;10.00
80555;PMS5003;69889;55.040;73.076;2023-07-28T13:37:11;14.00;13.00;8.00
80555;PMS5003;69889;55.040;73.076;2023-07-28T13:39:38;13.75;12.75;8.75
80555;PMS5003;69889;55.040;73.076;2023-07-28T13:42:05;12.00;11.00;8.00
80555;PMS5003;69889;55.040;73.076;2023-07-28T13:44:31;12.75;12.25;9.25
80555;PMS5003;69889;55.040;73.076;2023-07-28T13:46:58;12.25;12.25;9.25
80555;PMS5003;69889;55.040;73.076;2023-07-28T13:49:26;12.00;12.00;9.00
80555;PMS5003;69889;55.040;73.076;2023-07-28T13:51:54;14.75;14.00;10.00
80555;PMS5003;69889;55.040;73.076;2023-07-28T13:54:21;16.00;15.00;11.00